createdAt,value
2023-02-09T00:00:19.247Z,12.70
2023-02-09T00:02:46.569Z,11.90
2023-02-09T00:05:14.139Z,12.23
2023-02-09T00:07:41.403Z,10.90
2023-02-09T00:10:09.286Z,11.30
2023-02-09T00:12:56.190Z,11.23
2023-02-09T00:15:23.462Z,11.37
2023-02-09T00:17:50.763Z,11.03
2023-02-09T00:20:18.275Z,11.10
2023-02-09T00:22:45.555Z,10.83
2023-02-09T00:25:12.960Z,11.30
2023-02-09T00:27:40.252Z,11.10
2023-02-09T00:30:07.780Z,12.17
2023-02-09T00:32:35.080Z,11.13
2023-02-09T00:35:02.435Z,10.03
2023-02-09T00:37:29.895Z,9.70
2023-02-09T00:39:57.307Z,10.60
2023-02-09T00:42:24.631Z,11.80
2023-02-09T00:44:51.992Z,12.60
2023-02-09T00:47:19.321Z,10.37
2023-02-09T00:49:46.727Z,11.70
2023-02-09T00:52:14.084Z,12.33
2023-02-09T00:54:41.707Z,11.37
2023-02-09T00:57:09.723Z,11.30
2023-02-09T00:59:40.920Z,11.73
2023-02-09T01:02:09.730Z,12.53
2023-02-09T01:04:39.010Z,12.37
2023-02-09T01:07:06.457Z,12.93
2023-02-09T01:09:33.837Z,12.63
2023-02-09T01:12:01.221Z,12.20
2023-02-09T01:14:28.530Z,12.37
2023-02-09T01:16:57.301Z,12.23
2023-02-09T01:19:26.846Z,12.33
2023-02-09T01:21:55.532Z,13.20
2023-02-09T01:24:23.042Z,12.93
2023-02-09T01:26:50.345Z,12.50
2023-02-09T01:29:19.235Z,14.00
2023-02-09T01:31:47.279Z,12.33
2023-02-09T01:34:16.149Z,13.13
2023-02-09T01:36:43.522Z,11.50
2023-02-09T01:39:12.054Z,11.93
2023-02-09T01:41:40.064Z,13.07
2023-02-09T01:44:13.388Z,13.27
2023-02-09T01:46:40.709Z,12.57
2023-02-09T01:49:08.329Z,11.40
2023-02-09T01:51:37.310Z,12.57
2023-02-09T01:54:14.059Z,13.23
2023-02-09T01:56:43.378Z,12.33
2023-02-09T01:59:13.011Z,13.57
2023-02-09T02:01:40.884Z,12.77
2023-02-09T02:04:08.693Z,12.33
2023-02-09T02:06:37.129Z,13.80
2023-02-09T02:09:10.561Z,13.40
2023-02-09T02:11:38.542Z,12.93
2023-02-09T02:14:27.821Z,13.57
2023-02-09T02:17:02.005Z,13.70
2023-02-09T02:19:48.237Z,13.03
2023-02-09T02:22:15.551Z,12.80
2023-02-09T02:25:00.819Z,12.33
2023-02-09T02:27:40.285Z,13.97
2023-02-09T02:30:33.978Z,13.47
2023-02-09T02:33:13.253Z,15.13
2023-02-09T02:35:44.499Z,14.43
2023-02-09T02:38:16.613Z,13.93
2023-02-09T02:40:50.277Z,14.03
2023-02-09T02:43:39.324Z,13.33
2023-02-09T02:46:11.132Z,14.50
2023-02-09T02:49:15.281Z,13.63
2023-02-09T02:51:44.386Z,13.33
2023-02-09T02:54:21.806Z,13.50
2023-02-09T02:56:54.146Z,13.33
2023-02-09T02:59:23.760Z,14.03
2023-02-09T03:01:55.548Z,14.60
2023-02-09T03:04:23.596Z,12.63
2023-02-09T03:06:50.915Z,14.33
2023-02-09T03:09:18.791Z,13.93
2023-02-09T03:11:48.898Z,13.53
2023-02-09T03:14:19.193Z,13.20
2023-02-09T03:16:46.473Z,14.60
2023-02-09T03:19:26.049Z,13.30
2023-02-09T03:21:59.144Z,12.77
2023-02-09T03:24:29.244Z,14.87
2023-02-09T03:26:59.252Z,13.73
2023-02-09T03:29:28.539Z,15.93
2023-02-09T03:31:56.810Z,15.27
2023-02-09T03:34:24.110Z,13.03
2023-02-09T03:36:52.992Z,14.30
2023-02-09T03:39:20.273Z,13.53
2023-02-09T03:41:47.581Z,16.20
2023-02-09T03:44:26.990Z,14.17
2023-02-09T03:46:55.305Z,14.17
2023-02-09T03:49:22.741Z,14.30
2023-02-09T03:51:50.106Z,12.93
2023-02-09T03:54:17.458Z,13.80
2023-02-09T03:56:45.126Z,13.83
2023-02-09T03:59:12.662Z,14.47
2023-02-09T04:01:40.046Z,15.07
2023-02-09T04:04:07.304Z,14.57
2023-02-09T04:06:35.347Z,13.93
2023-02-09T04:09:03.073Z,14.47
2023-02-09T04:11:30.620Z,13.30
2023-02-09T04:13:58.031Z,14.07
2023-02-09T04:16:25.546Z,14.17
2023-02-09T04:18:53.052Z,15.70
2023-02-09T04:21:20.409Z,13.90
2023-02-09T04:23:50.375Z,14.43
2023-02-09T04:26:20.679Z,14.83
2023-02-09T04:28:48.003Z,13.80
2023-02-09T04:31:15.419Z,14.37
2023-02-09T04:33:42.747Z,14.60
2023-02-09T04:36:10.331Z,13.90
2023-02-09T04:38:37.644Z,15.13
2023-02-09T04:41:05.713Z,12.73
2023-02-09T04:43:33.907Z,14.17
2023-02-09T04:46:01.955Z,13.43
2023-02-09T04:48:30.127Z,14.03
2023-02-09T04:50:57.472Z,13.47
2023-02-09T04:53:24.813Z,13.00
2023-02-09T04:55:53.029Z,13.10
2023-02-09T04:58:39.474Z,13.97
2023-02-09T05:01:07.499Z,14.03
2023-02-09T05:03:35.347Z,13.07
2023-02-09T05:06:04.035Z,13.43
2023-02-09T05:08:31.564Z,12.50
2023-02-09T05:10:59.550Z,12.90
2023-02-09T05:13:27.189Z,12.83
2023-02-09T05:15:54.793Z,13.53
2023-02-09T05:18:22.700Z,14.90
2023-02-09T05:20:50.364Z,12.73
2023-02-09T05:23:18.678Z,12.73
2023-02-09T05:25:47.691Z,13.80
2023-02-09T05:28:15.489Z,14.23
2023-02-09T05:30:43.118Z,13.93
2023-02-09T05:33:10.501Z,14.43
2023-02-09T05:35:38.036Z,13.83
2023-02-09T05:38:05.358Z,12.00
2023-02-09T05:40:32.691Z,14.67
2023-02-09T05:43:00.349Z,14.90
2023-02-09T05:45:27.653Z,14.67
2023-02-09T05:47:54.935Z,13.30
2023-02-09T05:50:22.261Z,14.23
2023-02-09T05:52:49.568Z,13.70
2023-02-09T05:55:16.879Z,13.40
2023-02-09T05:57:44.587Z,13.63
2023-02-09T06:00:12.387Z,12.97
2023-02-09T06:02:39.950Z,15.63
2023-02-09T06:05:07.472Z,15.13
2023-02-09T06:07:34.792Z,14.33
2023-02-09T06:10:02.054Z,15.20
2023-02-09T06:12:29.610Z,14.70
2023-02-09T06:14:56.917Z,14.17
2023-02-09T06:17:24.373Z,14.43
2023-02-09T06:19:51.786Z,16.27
2023-02-09T06:22:19.305Z,16.57
2023-02-09T06:24:46.566Z,16.20
2023-02-09T06:27:13.927Z,14.83
2023-02-09T06:29:41.323Z,15.33
2023-02-09T06:32:08.771Z,16.33
2023-02-09T06:34:36.393Z,15.20
2023-02-09T06:37:04.095Z,14.00
2023-02-09T06:39:31.411Z,13.70
2023-02-09T06:41:58.832Z,14.77
2023-02-09T06:44:26.122Z,15.83
2023-02-09T06:46:53.448Z,16.20
2023-02-09T06:49:23.610Z,15.97
2023-02-09T06:51:51.337Z,16.53
2023-02-09T06:54:20.218Z,16.27
2023-02-09T06:56:48.100Z,14.97
2023-02-09T06:59:16.227Z,14.97
2023-02-09T07:01:43.652Z,15.50
2023-02-09T07:04:11.031Z,14.37
2023-02-09T07:06:38.298Z,17.93
2023-02-09T07:09:05.803Z,17.20
2023-02-09T07:11:33.343Z,15.90
2023-02-09T07:14:00.808Z,15.93
2023-02-09T07:16:28.227Z,14.70
2023-02-09T07:18:55.595Z,15.80
2023-02-09T07:21:27.809Z,16.13
2023-02-09T07:23:55.685Z,15.77
2023-02-09T07:26:23.227Z,15.17
2023-02-09T07:28:50.692Z,15.43
2023-02-09T07:31:18.709Z,14.83
2023-02-09T07:33:46.531Z,15.80
2023-02-09T07:36:15.120Z,14.23
2023-02-09T07:38:43.150Z,17.47
2023-02-09T07:41:14.526Z,15.20
2023-02-09T07:43:42.184Z,15.47
2023-02-09T07:46:10.229Z,15.07
2023-02-09T07:48:38.226Z,14.87
2023-02-09T07:51:05.883Z,14.83
2023-02-09T07:53:33.681Z,17.40
2023-02-09T07:56:01.018Z,14.47
2023-02-09T07:58:28.385Z,14.37
2023-02-09T08:00:55.829Z,14.27
2023-02-09T08:03:23.889Z,14.87
2023-02-09T08:06:04.879Z,12.93
2023-02-09T08:08:32.137Z,12.60
2023-02-09T08:11:00.212Z,14.37
2023-02-09T08:13:29.827Z,14.33
2023-02-09T08:15:59.681Z,17.57
2023-02-09T08:18:29.853Z,15.63
2023-02-09T08:20:57.256Z,19.93
2023-02-09T08:23:28.250Z,14.27
2023-02-09T08:25:55.989Z,14.80
2023-02-09T08:28:34.901Z,13.97
2023-02-09T08:31:09.547Z,13.23
2023-02-09T08:33:36.987Z,12.23
2023-02-09T08:36:04.377Z,11.93
2023-02-09T08:38:31.676Z,12.67
2023-02-09T08:41:02.371Z,13.57
2023-02-09T08:43:29.660Z,11.07
2023-02-09T08:46:02.026Z,12.63
2023-02-09T08:48:35.634Z,11.90
2023-02-09T08:51:03.323Z,12.17
2023-02-09T08:53:30.668Z,13.43
2023-02-09T08:55:58.211Z,13.73
2023-02-09T08:58:30.175Z,13.80
2023-02-09T09:00:59.224Z,16.83
2023-02-09T09:03:53.684Z,15.03
2023-02-09T09:06:22.897Z,14.67
2023-02-09T09:08:51.638Z,12.93
2023-02-09T09:11:19.043Z,12.57
2023-02-09T09:13:46.713Z,13.07
2023-02-09T09:16:15.588Z,12.27
2023-02-09T09:18:47.226Z,13.63
2023-02-09T09:21:15.984Z,13.43
2023-02-09T09:23:43.678Z,12.37
2023-02-09T09:26:16.507Z,12.23
2023-02-09T09:28:44.350Z,12.80
2023-02-09T09:31:13.777Z,12.40
2023-02-09T09:33:41.818Z,11.77
2023-02-09T09:36:10.080Z,12.07
2023-02-09T09:38:37.911Z,12.40
2023-02-09T09:41:06.559Z,11.97
2023-02-09T09:43:35.793Z,12.17
2023-02-09T09:46:03.763Z,11.80
2023-02-09T09:48:41.636Z,12.60
2023-02-09T09:51:32.305Z,12.30
2023-02-09T09:54:00.250Z,13.73
2023-02-09T09:56:29.109Z,13.40
2023-02-09T09:58:56.891Z,13.40
2023-02-09T10:01:26.014Z,12.93
2023-02-09T10:03:53.942Z,14.75
2023-02-09T10:06:22.851Z,13.37
2023-02-09T10:08:56.128Z,13.50
2023-02-09T10:11:25.677Z,12.73
2023-02-09T10:13:54.399Z,13.10
2023-02-09T10:16:26.588Z,12.47
2023-02-09T10:18:54.856Z,12.73
2023-02-09T10:21:23.413Z,13.60
2023-02-09T10:24:11.590Z,13.03
2023-02-09T10:26:40.742Z,11.67
2023-02-09T10:29:20.613Z,14.07
2023-02-09T10:32:07.105Z,13.47
2023-02-09T10:34:43.290Z,14.67
2023-02-09T10:37:18.984Z,12.63
2023-02-09T10:39:55.550Z,13.67
2023-02-09T10:42:43.260Z,15.17
2023-02-09T10:45:15.713Z,12.10
2023-02-09T10:47:43.523Z,12.13
2023-02-09T10:50:19.428Z,12.40
2023-02-09T10:53:03.429Z,13.17
2023-02-09T10:55:30.649Z,13.50
2023-02-09T10:58:04.832Z,14.23
2023-02-09T11:00:39.293Z,13.60
2023-02-09T11:03:14.169Z,13.40
2023-02-09T11:05:41.633Z,13.20
2023-02-09T11:08:25.162Z,12.80
2023-02-09T11:10:59.739Z,13.67
2023-02-09T11:13:27.716Z,11.93
2023-02-09T11:16:07.706Z,13.87
2023-02-09T11:18:35.625Z,13.03
2023-02-09T11:21:23.200Z,12.40
2023-02-09T11:23:54.006Z,13.83
2023-02-09T11:26:31.846Z,12.93
2023-02-09T11:29:17.609Z,12.67
2023-02-09T11:31:46.440Z,11.73
2023-02-09T11:34:19.838Z,14.63
2023-02-09T11:37:00.415Z,13.30
2023-02-09T11:39:38.695Z,14.50
2023-02-09T11:42:26.673Z,12.73
2023-02-09T11:44:56.943Z,13.83
2023-02-09T11:47:29.176Z,13.23
2023-02-09T11:49:58.517Z,13.70
2023-02-09T11:52:29.354Z,12.83
2023-02-09T11:55:00.125Z,14.13
2023-02-09T11:57:47.564Z,11.83
2023-02-09T12:00:23.764Z,13.57
2023-02-09T12:03:04.816Z,12.73
2023-02-09T12:05:32.306Z,12.83
2023-02-09T12:08:23.541Z,14.23
2023-02-09T12:10:56.884Z,11.27
2023-02-09T12:13:24.155Z,13.27
2023-02-09T12:15:53.184Z,13.53
2023-02-09T12:18:25.049Z,12.63
2023-02-09T12:20:59.553Z,12.93
2023-02-09T12:23:26.833Z,13.20
2023-02-09T12:25:55.378Z,15.03
2023-02-09T12:28:28.891Z,13.40
2023-02-09T12:30:59.341Z,15.17
2023-02-09T12:33:26.800Z,15.73
2023-02-09T12:36:18.294Z,13.83
2023-02-09T12:39:04.057Z,13.90
2023-02-09T12:41:51.761Z,14.20
2023-02-09T12:44:19.803Z,13.07
2023-02-09T12:46:47.224Z,15.10
2023-02-09T12:49:14.546Z,14.00
2023-02-09T12:51:44.810Z,12.97
2023-02-09T12:54:31.246Z,13.37
2023-02-09T12:57:17.151Z,14.30
2023-02-09T12:59:51.082Z,13.50
2023-02-09T13:02:27.842Z,12.87
2023-02-09T13:05:13.210Z,13.77
2023-02-09T13:07:52.604Z,14.73
2023-02-09T13:10:24.457Z,14.07
2023-02-09T13:13:04.543Z,14.30
2023-02-09T13:15:44.101Z,12.97
2023-02-09T13:18:18.040Z,14.27
2023-02-09T13:20:56.206Z,13.10
2023-02-09T13:23:29.874Z,13.13
2023-02-09T13:26:29.797Z,13.67
2023-02-09T13:29:20.942Z,12.83
2023-02-09T13:31:50.157Z,14.80
2023-02-09T13:34:20.577Z,13.97
2023-02-09T13:36:56.365Z,14.10
2023-02-09T13:39:25.373Z,12.87
2023-02-09T13:41:54.040Z,13.87
2023-02-09T13:44:25.818Z,14.00
2023-02-09T13:46:54.225Z,13.13
2023-02-09T13:49:22.160Z,14.90
2023-02-09T13:52:28.294Z,12.90
2023-02-09T13:55:08.256Z,13.47
2023-02-09T13:57:36.612Z,13.07
2023-02-09T14:00:10.423Z,12.37
2023-02-09T14:02:52.430Z,13.30
2023-02-09T14:05:26.228Z,12.90
2023-02-09T14:07:54.200Z,15.10
2023-02-09T14:10:22.216Z,13.27
2023-02-09T14:12:52.891Z,13.50
2023-02-09T14:15:40.920Z,12.67
2023-02-09T14:18:27.022Z,12.70
2023-02-09T14:21:15.766Z,12.93
2023-02-09T14:24:04.038Z,11.97
2023-02-09T14:26:36.129Z,11.47
2023-02-09T14:29:17.859Z,13.07
2023-02-09T14:31:50.279Z,11.10
2023-02-09T14:34:32.902Z,11.63
2023-02-09T14:37:12.553Z,11.73
2023-02-09T14:39:55.291Z,12.93
2023-02-09T14:42:22.988Z,11.80
2023-02-09T14:44:58.007Z,11.87
2023-02-09T14:47:39.729Z,13.10
2023-02-09T14:50:27.507Z,12.07
2023-02-09T14:53:06.572Z,11.80
2023-02-09T14:55:40.189Z,11.60
2023-02-09T14:58:11.689Z,13.23
2023-02-09T15:00:39.068Z,11.73
2023-02-09T15:03:06.407Z,11.23
2023-02-09T15:05:33.815Z,12.00
2023-02-09T15:08:05.810Z,11.33
2023-02-09T15:10:35.212Z,12.47
2023-02-09T15:13:03.320Z,12.30
2023-02-09T15:15:31.361Z,11.17
2023-02-09T15:17:59.980Z,11.47
2023-02-09T15:20:29.114Z,10.83
2023-02-09T15:22:56.833Z,11.53
2023-02-09T15:25:25.149Z,11.60
2023-02-09T15:27:53.799Z,12.47
2023-02-09T15:30:29.830Z,12.50
2023-02-09T15:32:57.548Z,11.43
2023-02-09T15:35:26.370Z,12.27
2023-02-09T15:37:55.176Z,11.87
2023-02-09T15:40:41.420Z,11.93
2023-02-09T15:43:31.569Z,13.47
2023-02-09T15:46:17.616Z,12.67
2023-02-09T15:48:44.931Z,12.30
2023-02-09T15:51:12.564Z,13.00
2023-02-09T15:53:40.507Z,13.07
2023-02-09T15:56:09.348Z,14.37
2023-02-09T15:58:38.858Z,12.77
2023-02-09T16:01:06.777Z,12.03
2023-02-09T16:03:34.206Z,12.73
2023-02-09T16:06:05.219Z,13.83
2023-02-09T16:08:33.386Z,12.47
2023-02-09T16:11:01.683Z,12.90
2023-02-09T16:13:29.116Z,15.60
2023-02-09T16:16:05.021Z,12.80
2023-02-09T16:18:38.635Z,12.80
2023-02-09T16:21:07.388Z,13.30
2023-02-09T16:23:35.179Z,13.10
2023-02-09T16:26:05.218Z,13.53
2023-02-09T16:28:32.566Z,13.47
2023-02-09T16:31:00.014Z,13.30
2023-02-09T16:33:27.477Z,14.50
2023-02-09T16:35:56.715Z,13.83
2023-02-09T16:38:24.956Z,14.03
2023-02-09T16:40:53.020Z,14.30
2023-02-09T16:43:20.316Z,14.63
2023-02-09T16:46:02.450Z,13.80
2023-02-09T16:48:32.346Z,14.50
2023-02-09T16:50:59.821Z,13.17
2023-02-09T16:53:32.783Z,13.77
2023-02-09T16:56:01.374Z,18.37
2023-02-09T16:58:28.941Z,13.83
2023-02-09T17:00:57.613Z,15.97
2023-02-09T17:03:31.809Z,14.27
2023-02-09T17:05:59.192Z,15.83
2023-02-09T17:08:27.863Z,15.00
2023-02-09T17:10:56.083Z,16.07
2023-02-09T17:13:24.088Z,14.97
2023-02-09T17:16:00.404Z,15.23
2023-02-09T17:18:33.035Z,14.90
2023-02-09T17:21:13.076Z,13.60
2023-02-09T17:23:42.145Z,14.67
2023-02-09T17:26:10.720Z,14.83
2023-02-09T17:28:38.102Z,14.13
2023-02-09T17:31:12.795Z,14.63
2023-02-09T17:33:40.615Z,13.93
2023-02-09T17:36:25.610Z,13.70
2023-02-09T17:38:54.857Z,13.63
2023-02-09T17:41:33.540Z,14.43
2023-02-09T17:44:31.907Z,16.73
2023-02-09T17:47:09.991Z,13.70
2023-02-09T17:49:37.322Z,14.97
2023-02-09T17:52:04.632Z,13.00
2023-02-09T17:57:57.549Z,14.70
2023-02-09T18:00:25.719Z,13.40
2023-02-09T18:02:53.464Z,13.50
2023-02-09T18:05:22.958Z,14.63
2023-02-09T18:07:50.531Z,16.27
2023-02-09T18:10:18.586Z,14.17
2023-02-09T18:12:46.208Z,14.27
2023-02-09T18:15:20.720Z,15.23
2023-02-09T18:17:48.352Z,14.70
2023-02-09T18:20:17.506Z,15.47
2023-02-09T18:22:45.160Z,15.27
2023-02-09T18:25:18.876Z,16.60
2023-02-09T18:27:46.325Z,15.40
2023-02-09T18:30:13.861Z,14.73
2023-02-09T18:32:41.433Z,14.87
2023-02-09T18:35:09.164Z,14.80
2023-02-09T18:37:40.377Z,16.07
2023-02-09T18:40:07.936Z,14.17
2023-02-09T18:42:35.405Z,15.17
2023-02-09T18:45:02.762Z,14.97
2023-02-09T18:47:30.635Z,15.53
2023-02-09T18:49:58.052Z,14.77
2023-02-09T18:52:27.060Z,15.77
2023-02-09T18:54:54.422Z,13.63
2023-02-09T18:57:21.762Z,15.63
2023-02-09T18:59:49.047Z,17.40
2023-02-09T19:02:16.538Z,16.83
2023-02-09T19:04:43.919Z,15.67
2023-02-09T19:07:12.533Z,16.03
2023-02-09T19:09:40.579Z,15.60
2023-02-09T19:12:07.966Z,14.53
2023-02-09T19:14:41.297Z,17.40
2023-02-09T19:17:10.321Z,15.30
2023-02-09T19:19:38.778Z,15.53
2023-02-09T19:22:06.245Z,15.17
2023-02-09T19:24:33.588Z,14.87
2023-02-09T19:27:00.942Z,16.33
2023-02-09T19:29:29.277Z,17.60
2023-02-09T19:31:56.728Z,15.30
2023-02-09T19:34:24.138Z,16.97
2023-02-09T19:36:51.555Z,15.90
2023-02-09T19:39:19.266Z,17.27
2023-02-09T19:41:48.971Z,16.77
2023-02-09T19:44:16.355Z,16.47
2023-02-09T19:46:43.967Z,15.87
2023-02-09T19:49:11.826Z,15.63
2023-02-09T19:51:39.168Z,15.23
2023-02-09T19:54:06.494Z,17.10
2023-02-09T19:56:33.765Z,15.53
2023-02-09T19:59:01.667Z,17.03
2023-02-09T20:01:31.336Z,16.07
2023-02-09T20:04:01.563Z,14.60
2023-02-09T20:06:30.980Z,15.97
2023-02-09T20:08:59.422Z,13.77
2023-02-09T20:11:27.194Z,16.97
2023-02-09T20:13:55.344Z,17.97
2023-02-09T20:16:24.511Z,18.50
2023-02-09T20:18:52.372Z,17.10
2023-02-09T20:21:21.003Z,20.00
2023-02-09T20:23:48.452Z,19.90
2023-02-09T20:26:17.374Z,16.10
2023-02-09T20:28:45.141Z,18.90
2023-02-09T20:31:14.940Z,19.23
2023-02-09T20:33:43.298Z,19.87
2023-02-09T20:36:10.960Z,20.10
2023-02-09T20:38:38.452Z,20.77
2023-02-09T20:41:09.429Z,21.57
2023-02-09T20:43:56.208Z,18.13
2023-02-09T20:47:00.137Z,20.77
2023-02-09T20:49:36.928Z,20.00
2023-02-09T20:52:04.360Z,22.43
2023-02-09T20:54:32.267Z,21.67
2023-02-09T20:56:59.733Z,25.13
2023-02-09T20:59:27.503Z,22.47
2023-02-09T21:01:54.798Z,22.20
2023-02-09T21:04:22.163Z,24.13
2023-02-09T21:06:49.627Z,24.10
2023-02-09T21:09:16.952Z,23.27
2023-02-09T21:11:44.230Z,23.73
2023-02-09T21:14:21.958Z,22.47
2023-02-09T21:16:59.083Z,21.87
2023-02-09T21:19:26.610Z,23.87
2023-02-09T21:21:54.171Z,24.23
2023-02-09T21:24:21.587Z,23.97
2023-02-09T21:26:49.037Z,24.73
2023-02-09T21:29:16.494Z,23.50
2023-02-09T21:31:44.835Z,26.67
2023-02-09T21:34:16.491Z,25.73
2023-02-09T21:36:43.906Z,26.43
2023-02-09T21:39:11.640Z,31.25
2023-02-09T21:41:57.669Z,27.10
2023-02-09T21:44:25.071Z,26.80
2023-02-09T21:46:53.833Z,26.03
2023-02-09T21:49:21.283Z,20.33
2023-02-09T21:51:49.002Z,25.83
2023-02-09T21:54:17.325Z,23.90
2023-02-09T21:56:45.547Z,23.63
2023-02-09T21:59:13.118Z,21.00
2023-02-09T22:01:42.697Z,24.40
2023-02-09T22:04:10.286Z,24.33
2023-02-09T22:06:37.679Z,23.83
2023-02-09T22:09:06.374Z,25.07
2023-02-09T22:11:33.715Z,22.50
2023-02-09T22:14:01.387Z,26.13
2023-02-09T22:16:29.576Z,25.37
2023-02-09T22:18:57.498Z,26.93
2023-02-09T22:21:25.148Z,25.70
2023-02-09T22:23:54.861Z,26.30
2023-02-09T22:26:22.365Z,25.53
2023-02-09T22:28:50.250Z,24.47
2023-02-09T22:31:18.540Z,24.50
2023-02-09T22:33:46.591Z,23.50
2023-02-09T22:36:19.369Z,27.20
2023-02-09T22:38:46.833Z,25.07
2023-02-09T22:41:22.126Z,24.90
2023-02-09T22:43:53.883Z,24.70
2023-02-09T22:46:22.267Z,26.67
2023-02-09T22:48:53.533Z,25.37
2023-02-09T22:51:21.329Z,28.53
2023-02-09T22:53:48.832Z,25.63
2023-02-09T22:56:16.343Z,31.57
2023-02-09T22:58:43.861Z,28.10
2023-02-09T23:01:11.590Z,26.73
2023-02-09T23:03:39.859Z,29.10
2023-02-09T23:06:08.690Z,27.33
2023-02-09T23:08:36.220Z,27.93
2023-02-09T23:11:04.294Z,27.43
2023-02-09T23:13:32.340Z,27.57
2023-02-09T23:16:10.368Z,29.83
2023-02-09T23:18:38.162Z,28.73
2023-02-09T23:21:06.762Z,28.50
2023-02-09T23:23:34.234Z,26.23
2023-02-09T23:26:01.611Z,29.90
2023-02-09T23:28:29.239Z,29.80
2023-02-09T23:30:56.712Z,29.20
2023-02-09T23:33:24.115Z,28.80
2023-02-09T23:35:51.451Z,28.43
2023-02-09T23:38:19.958Z,27.33
2023-02-09T23:40:47.309Z,30.87
2023-02-09T23:43:14.710Z,26.40
2023-02-09T23:45:42.074Z,28.10
2023-02-09T23:48:09.416Z,29.10
2023-02-09T23:50:36.787Z,31.60
2023-02-09T23:53:04.199Z,29.67
2023-02-09T23:55:31.566Z,33.57
2023-02-09T23:57:58.970Z,32.37
